San Clemente Ridge Station Data

Red Flag Warning: No
Fire Weather Zone: 242
SDGE Region: Orange County
Lat/Lon: 33.436/-117.59

Observations

Time Wind Speed/Gust Temp(F) RH Fuel Moist Fuel Temp(F) Dewpt(F) Tmax(F) Tmin(F) Accum Precip 10-min Precip SL Press(mb)
5/24 8:20am 0 4 G 7 55° 95% - - 54° 56.6° 53.6° - - 1013.0
5/24 8:10am 346 4 G 7 55° 95% - - 54° 56.6° 53.6° - - 1013.0
5/24 8:00am 328 3 G 7 55° 95% - - 54° 56.6° 53.6° - - 1013.0
5/24 7:50am 47 2 G 4 55° 95% - - 54° 56.6° 53.6° - - 1013.0
5/24 7:40am 13 2 G 6 55° 95% - - 54° 56.6° 53.6° - - 1013.0
5/24 7:30am 25 4 G 6 55° 95% - - 53° 56.6° 53.6° - - 1013.0
5/24 7:20am 28 5 G 8 55° 95% - - 54° 56.6° 53.6° - - 1013.0
5/24 7:10am 337 2 G 4 55° 95% - - 54° 56.6° 53.6° - - 1013.0
5/24 7:00am 291 2 G 8 55° 95% - - 54° 56.6° 53.6° - - 1013.0
5/24 6:50am 247 4 G 6 55° 95% - - 54° 56.6° 53.6° - - 1013.0
5/24 6:40am 209 3 G 5 55° 95% - - 54° 56.6° 53.6° - - 1013.0
5/24 6:30am 212 1 G 3 55° 95% - - 54° 56.6° 53.6° - - 1012.0
5/24 6:20am 95 1 G 2 54° 95% - - 53° 56.6° 53.6° - - 1012.0
5/24 6:10am 158 2 G 3 54° 95% - - 53° 56.6° 53.6° - - 1012.0
5/24 6:00am 188 3 G 7 54° 95% - - 53° 56.6° 53.6° - - 1012.0
5/24 5:50am 182 3 G 7 54° 95% - - 53° 56.6° 53.6° - - 1012.0
5/24 5:40am 113 2 G 3 54° 95% - - 53° 56.6° 53.6° - - 1012.0
5/24 5:30am 211 1 G 4 54° 95% - - 53° 56.6° 53.7° - - 1012.0
5/24 5:20am 84 1 G 2 54° 95% - - 53° 56.6° 53.7° - - 1012.0
5/24 5:10am 120 0 G 2 54° 95% - - 53° 56.6° 53.9° - - 1012.0
5/24 5:00am 314 1 G 4 54° 95% - - 53° 56.6° 53.9° - - 1012.0
5/24 4:50am 264 2 G 4 55° 95% - - 53° 56.6° 54° - - 1012.0
5/24 4:40am 13 1 G 3 55° 95% - - 53° 56.6° 54° - - 1012.0
5/24 4:30am 34 1 G 4 55° 95% - - 53° 56.6° 54° - - 1012.0
5/24 4:20am 82 1 G 4 55° 95% - - 53° 56.6° 54° - - 1012.0
5/24 4:10am 104 3 G 6 55° 95% - - 54° 56.6° 54° - - 1013.0
5/24 4:00am 132 3 G 5 55° 95% - - 54° 56.6° 54° - - 1013.0
5/24 3:50am 121 3 G 4 55° 95% - - 54° 56.6° 54° - - 1013.0
5/24 3:40am 140 3 G 4 55° 95% - - 54° 56.6° 54° - - 1013.0
5/24 3:30am 162 3 G 6 55° 95% - - 54° 56.6° 54° - - 1013.0
5/24 3:20am 146 3 G 5 55° 95% - - 53° 56.6° 54° - - 1013.0
5/24 3:10am 178 3 G 5 54° 95% - - 53° 56.6° 54° - - 1013.0
5/24 3:00am 191 2 G 4 55° 95% - - 53° 56.6° 54.1° - - 1013.0
5/24 2:50am 164 2 G 4 55° 95% - - 53° 56.6° 54.1° - - 1013.0
5/24 2:40am 167 3 G 5 55° 95% - - 53° 56.6° 54.1° - - 1013.0
5/24 2:30am 125 4 G 5 55° 95% - - 53° 56.6° 54.1° - - 1013.0
5/24 2:20am 139 2 G 4 55° 95% - - 53° 56.6° 54.1° - - 1013.0
5/24 2:10am 129 2 G 3 55° 95% - - 53° 56.6° 54.1° - - 1013.0
5/24 2:00am 88 1 G 2 55° 95% - - 53° 56.6° 54.1° - - 1013.0
5/24 1:50am 62 1 G 2 55° 95% - - 53° 56.6° 54.3° - - 1013.0
5/24 1:40am 189 1 G 2 55° 95% - - 54° 56.6° 54.3° - - 1013.0
5/24 1:30am 146 1 G 2 55° 95% - - 54° 56.6° 54.3° - - 1013.0
5/24 1:20am 162 1 G 3 55° 95% - - 53° 56.6° 54.3° - - 1013.0
5/24 1:10am 156 2 G 4 55° 95% - - 53° 56.6° 54.4° - - 1014.0
5/24 1:00am 132 3 G 5 55° 95% - - 54° 56.6° 54.4° - - 1014.0
5/24 12:50am 103 3 G 5 55° 95% - - 54° 56.6° 54.7° - - 1014.0
5/24 12:40am 128 2 G 4 55° 95% - - 54° 56.6° 54.9° - - 1014.0
5/24 12:30am 37 1 G 2 56° 95% - - 54° 56.6° 55.1° - - 1014.0
5/24 12:20am 305 1 G 3 56° 95% - - 54° 56.6° 55.3° - - 1014.0
5/24 12:10am 246 2 G 5 56° 95% - - 55° 56.6° 55.5° - - 1014.0
5/24 12:00am 253 2 G 4 56° 95% - - 55° 72° 55° - - 1014.0
5/23 11:50pm 274 3 G 5 56° 95% - - 55° 72° 55° - - 1014.0
5/23 11:40pm 288 4 G 6 56° 95% - - 55° 72° 55° - - 1014.0
5/23 11:30pm 292 4 G 7 56° 95% - - 54° 72° 55° - - 1014.0
5/23 11:20pm 293 4 G 7 56° 95% - - 55° 72° 55° - - 1014.0
5/23 11:10pm 285 4 G 6 56° 95% - - 55° 72° 55° - - 1014.0
5/23 11:00pm 286 5 G 7 56° 95% - - 55° 72° 55° - - 1014.0
5/23 10:50pm 296 5 G 7 57° 95% - - 55° 72° 55° - - 1014.0
5/23 10:40pm 294 5 G 7 57° 95% - - 55° 72° 55° - - 1014.0
5/23 10:30pm 296 4 G 7 57° 94% - - 55° 72° 55° - - 1014.0
5/23 10:20pm 299 4 G 7 57° 94% - - 55° 72° 55° - - 1014.0
5/23 10:10pm 317 3 G 6 57° 94% - - 55° 72° 55° - - 1014.0
5/23 10:00pm 285 4 G 7 57° 94% - - 55° 72° 55° - - 1014.0
5/23 9:50pm 293 4 G 6 57° 94% - - 55° 72° 55° - - 1014.0
5/23 9:40pm 294 4 G 6 57° 94% - - 56° 72° 55° - - 1014.0
5/23 9:30pm 298 5 G 7 57° 94% - - 56° 72° 55° - - 1014.0
5/23 9:20pm 298 5 G 7 58° 93% - - 56° 72° 55° - - 1014.0
5/23 9:10pm 301 5 G 8 58° 93% - - 56° 72° 55° - - 1014.0
5/23 9:00pm 304 7 G 9 58° 92% - - 56° 72° 55° - - 1014.0
5/23 8:50pm 302 7 G 8 58° 89% - - 55° 72° 55° - - 1014.0
5/23 8:40pm 304 7 G 9 59° 86% - - 55° 72° 55° - - 1013.0
5/23 8:30pm 305 7 G 9 59° 85% - - 55° 72° 55° - - 1013.0
5/23 8:20pm 305 6 G 9 60° 84% - - 55° 72° 55° - - 1013.0
5/23 8:10pm 314 6 G 7 60° 83% - - 55° 72° 55° - - 1013.0
5/23 8:00pm 321 3 G 5 60° 83% - - 55° 72° 55° - - 1013.0
5/23 7:50pm 313 5 G 7 61° 79% - - 54° 72° 55° - - 1013.0
5/23 7:40pm 325 5 G 7 61° 78% - - 54° 72° 55° - - 1013.0
5/23 7:30pm 304 4 G 7 61° 79% - - 55° 72° 55° - - 1013.0
5/23 7:20pm 301 6 G 8 61° 81% - - 55° 72° 55° - - 1013.0
5/23 7:10pm 288 6 G 9 62° 79% - - 55° 72° 55° - - 1013.0
5/23 7:00pm 288 5 G 7 62° 78% - - 55° 72° 55° - - 1013.0
5/23 6:50pm 278 5 G 8 63° 76% - - 55° 72° 55° - - 1013.0
5/23 6:40pm 271 5 G 8 63° 75% - - 55° 72° 55° - - 1013.0
5/23 6:30pm 274 4 G 8 63° 77% - - 56° 72° 55° - - 1013.0
5/23 6:20pm 268 5 G 8 64° 77% - - 57° 72° 55° - - 1013.0
5/23 6:10pm 262 4 G 8 64° 76% - - 57° 72° 55° - - 1013.0
5/23 6:00pm 285 4 G 8 64° 77% - - 57° 72° 55° - - 1013.0
5/23 5:50pm 268 5 G 8 65° 76% - - 57° 72° 55° - - 1013.0
5/23 5:40pm 266 5 G 8 64° 77% - - 57° 72° 55° - - 1013.0
5/23 5:30pm 281 5 G 9 64° 78% - - 57° 72° 55° - - 1013.0
5/23 5:20pm 277 7 G 10 63° 80% - - 57° 72° 55° - - 1013.0
5/23 5:10pm 278 9 G 13 63° 81% - - 57° 72° 55° - - 1013.0
5/23 5:00pm 278 9 G 13 63° 80% - - 57° 72° 55° - - 1013.0
5/23 4:50pm 279 10 G 14 63° 81% - - 57° 72° 55° - - 1013.0
5/23 4:40pm 284 10 G 15 63° 82% - - 57° 72° 55° - - 1013.0
5/23 4:30pm 284 12 G 16 63° 79% - - 57° 72° 55° - - 1013.0
5/23 4:20pm 286 9 G 14 66° 73% - - 57° 72° 55° - - 1013.0
5/23 4:10pm 285 8 G 12 67° 70% - - 57° 72° 55° - - 1013.0
5/23 4:00pm 294 7 G 10 69° 65% - - 57° 72° 55° - - 1013.0
5/23 3:50pm 295 7 G 9 69° 67% - - 58° 72° 55° - - 1013.0
5/23 3:40pm 298 5 G 9 68° 69% - - 58° 72° 55° - - 1014.0
5/23 3:30pm 296 6 G 8 67° 73% - - 58° 72° 55° - - 1014.0
5/23 3:20pm 298 6 G 10 66° 74% - - 58° 72° 55° - - 1014.0
5/23 3:10pm 299 8 G 12 65° 75% - - 57° 72° 55° - - 1014.0
5/23 3:00pm 296 7 G 11 66° 75% - - 57° 72° 55° - - 1014.0
5/23 2:50pm 302 7 G 11 65° 76% - - 57° 72° 55° - - 1014.0
5/23 2:40pm 290 8 G 11 65° 76% - - 57° 72° 55° - - 1014.0
5/23 2:30pm 289 8 G 12 65° 77% - - 57° 72° 55° - - 1014.0
5/23 2:20pm 293 7 G 10 65° 78% - - 57° 72° 55° - - 1015.0
5/23 2:10pm 290 8 G 11 63° 80% - - 57° 72° 55° - - 1015.0
5/23 2:00pm 293 8 G 12 62° 83% - - 57° 72° 55° - - 1015.0
5/23 1:50pm 293 8 G 12 61° 85% - - 56° 72° 55° - - 1015.0
5/23 1:40pm 283 9 G 13 60° 86% - - 56° 72° 55° - - 1015.0
5/23 1:30pm 289 11 G 16 60° 85% - - 56° 72° 55° - - 1015.0
5/23 1:20pm 288 10 G 16 61° 85% - - 56° 72° 55° - - 1015.0
5/23 1:10pm 284 10 G 14 61° 86% - - 56° 72° 55° - - 1015.0
5/23 1:00pm 289 9 G 13 60° 86% - - 56° 72° 55° - - 1015.0
5/23 12:50pm 286 8 G 13 60° 87% - - 56° 72° 55° - - 1015.0
5/23 12:40pm 285 8 G 12 60° 86% - - 56° 72° 55° - - 1015.0
5/23 12:30pm 283 7 G 11 60° 86% - - 56° 72° 55° - - 1015.0
5/23 12:20pm 291 7 G 11 60° 88% - - 57° 72° 55° - - 1015.0
5/23 12:10pm 287 7 G 11 60° 90% - - 57° 72° 55° - - 1015.0
5/23 12:00pm 283 8 G 15 59° 93% - - 57° 72° 55° - - 1016.0
5/23 11:50am 285 10 G 15 58° 93% - - 56° 72° 55° - - 1016.0
5/23 11:40am 274 10 G 15 58° 93% - - 56° 72° 55° - - 1016.0
5/23 11:30am 281 10 G 15 58° 93% - - 56° 72° 55° - - 1016.0
5/23 11:20am 274 9 G 15 59° 92% - - 56° 72° 55° - - 1015.0
5/23 11:10am 276 10 G 15 59° 91% - - 57° 72° 55° - - 1015.0
5/23 11:00am 277 9 G 14 59° 91% - - 57° 72° 55° - - 1015.0
5/23 10:50am 264 9 G 13 60° 90% - - 57° 72° 55° - - 1015.0
5/23 10:40am 277 8 G 12 61° 87% - - 57° 72° 55° - - 1015.0
5/23 10:30am 271 8 G 12 61° 85% - - 57° 72° 55° - - 1014.0
5/23 10:20am 268 8 G 11 63° 82% - - 57° 72° 55° - - 1014.0
5/23 10:10am 274 7 G 11 64° 77% - - 57° 72° 55° - - 1014.0
5/23 10:00am 278 6 G 10 65° 75% - - 57° 72° 55° - - 1014.0
5/23 9:50am 301 6 G 8 67° 72% - - 58° 72° 55° - - 1014.0
5/23 9:40am 328 3 G 6 70° 64% - - 58° 72° 55° - - 1014.0
5/23 9:30am 175 2 G 5 70° 63% - - 57° 70.7° 55° - - 1014.0
5/23 9:20am 177 3 G 6 69° 63% - - 56° 70.5° 55° - - 1014.0
5/23 9:10am 57 6 G 12 66° 70% - - 56° 68.3° 55° - - 1014.0
5/23 9:00am 51 11 G 13 63° 78% - - 56° 64.7° 55° - - 1014.0
5/23 8:50am 50 11 G 13 61° 91% - - 58° 62.5° 55° - - 1014.0
5/23 8:40am 48 10 G 14 59° 95% - - 57° 60.2° 55° - - 1014.0
5/23 8:30am 50 9 G 13 59° 95% - - 57° 59.8° 55° - - 1015.0
5/23 8:20am 40 3 G 7 59° 95% - - 58° 59.8° 55° - - 1015.0
5/23 8:10am 344 2 G 4 58° 95% - - 56° 58.5° 55° - - 1015.0
5/23 8:00am 353 2 G 3 57° 95% - - 56° 58.1° 55° - - 1015.0
5/23 7:50am 269 2 G 4 57° 95% - - 56° 58.1° 55° - - 1015.0
5/23 7:40am 285 2 G 4 57° 95% - - 56° 58.1° 55° - - 1015.0
5/23 7:30am 291 2 G 4 57° 95% - - 56° 58.1° 55° - - 1015.0
5/23 7:20am 266 2 G 3 57° 95% - - 56° 58.1° 55° - - 1015.0
5/23 7:10am 258 1 G 3 57° 95% - - 56° 58.1° 55° - - 1015.0
5/23 7:00am 337 1 G 3 57° 95% - - 55° 58.1° 55° - - 1015.0
5/23 6:50am 241 1 G 4 56° 95% - - 55° 58.1° 55° - - 1015.0
5/23 6:40am 252 2 G 5 56° 95% - - 55° 58.1° 55° - - 1015.0
5/23 6:30am 255 2 G 3 56° 95% - - 55° 58.1° 55° - - 1015.0
5/23 6:20am 259 2 G 5 56° 95% - - 55° 58.1° 55° - - 1015.0
5/23 6:10am 25 2 G 3 56° 95% - - 54° 58.1° 55° - - 1015.0
5/23 6:00am 32 2 G 3 56° 95% - - 55° 58.1° 55.1° - - 1015.0